»·PEaware :: N2068P L52-L88

N2068P :: L52-L88

FLIGHT INFORMATION

Flight Status: Arrived
Operator: Privately registered:
United States
More flights under this callsign
Pilot: Christopher T. (26287)
Aircraft: CESSNA 172 SKYHAWK
(C172)
More flights by this aircraft type
Origin: L52 Oceano Co
United States
Destination: L88 New Cuyama
United States
More flights between these airports :: More routes between these airports
Route:
File this flight plan on PilotEdge
Remarks:
Altitude:
(Current/Filed)
1,200ft
Speed:
(Current/Filed)
120kts
Departed: 12-Oct-19 03:35 PM
Arrived: 12-Oct-19 04:14 PM
Distance/Time
Traveled:
47nm/0:38
Distance/Time
To Go:
Arrived

Flight Plot

Page will automatically refresh every two minutes.


Map Options




Map Legend


Flown Route
Filed Route
Departure Airport
Arrival Airport
Navaid (VOR, NDB)
Fix

Horizontal Profiles

Position Reports

Time Latitude Longitude Heading Altitude Ground
Speed
12-Oct-19 15:03 35.238936 -120.641072 214 216ft 0kts
12-Oct-19 15:05 35.238936 -120.641072 214 216ft 0kts
12-Oct-19 15:06 35.238936 -120.641072 214 216ft 0kts
12-Oct-19 15:07 35.238936 -120.641072 214 216ft 0kts
12-Oct-19 15:08 35.238936 -120.641072 214 216ft 0kts
12-Oct-19 15:09 35.238936 -120.641072 214 216ft 0kts
12-Oct-19 15:10 35.238936 -120.641072 214 216ft 0kts
12-Oct-19 15:11 35.238936 -120.641072 214 216ft 0kts
12-Oct-19 15:12 35.238936 -120.641072 214 216ft 0kts
12-Oct-19 15:13 35.103552 -120.624284 214 15ft 0kts
12-Oct-19 15:14 35.103552 -120.624284 214 15ft 0kts
12-Oct-19 15:15 35.103552 -120.624284 214 15ft 0kts
12-Oct-19 15:16 35.103552 -120.624284 214 15ft 0kts
12-Oct-19 15:17 35.103552 -120.624284 214 15ft 0kts
12-Oct-19 15:18 35.103552 -120.624284 214 15ft 0kts
12-Oct-19 15:19 35.103552 -120.624284 214 15ft 0kts
12-Oct-19 15:20 35.103552 -120.624284 214 15ft 0kts
12-Oct-19 15:21 35.103552 -120.624284 214 15ft 0kts
12-Oct-19 15:22 35.103552 -120.624284 214 15ft 0kts
12-Oct-19 15:22 35.103552 -120.624284 214 15ft 0kts
12-Oct-19 15:23 35.103552 -120.624284 214 15ft 0kts
12-Oct-19 15:25 35.103552 -120.624284 214 15ft 0kts
12-Oct-19 15:26 35.103552 -120.624284 214 15ft 0kts
12-Oct-19 15:26 35.103552 -120.624284 214 15ft 0kts
12-Oct-19 15:27 35.103552 -120.624284 214 15ft 0kts
12-Oct-19 15:28 35.103552 -120.624284 214 15ft 0kts
12-Oct-19 15:30 35.103551 -120.624284 213 15ft 0kts
12-Oct-19 15:30 35.102697 -120.623816 244 15ft 4kts
12-Oct-19 15:31 35.101187 -120.622595 122 15ft 13kts
12-Oct-19 15:32 35.099501 -120.619553 138 17ft 6kts
12-Oct-19 15:33 35.100006 -120.619330 316 17ft 12kts
12-Oct-19 15:34 35.108376 -120.638821 286 237ft 95kts
12-Oct-19 15:35 35.116711 -120.665322 335 1028ft 84kts
12-Oct-19 15:36 35.139866 -120.662090 30 1679ft 89kts
12-Oct-19 15:37 35.140899 -120.630459 110 1825ft 116kts
12-Oct-19 15:38 35.129632 -120.595916 110 1828ft 106kts
12-Oct-19 15:39 35.118823 -120.562551 109 1829ft 104kts
12-Oct-19 15:40 35.108540 -120.529250 105 1830ft 105kts
12-Oct-19 15:41 35.100273 -120.492850 102 1831ft 125kts
12-Oct-19 15:42 35.092764 -120.454395 99 2534ft 93kts
12-Oct-19 15:43 35.095213 -120.432018 83 3181ft 74kts
12-Oct-19 15:44 35.091496 -120.400088 100 3439ft 112kts
12-Oct-19 15:45 35.075460 -120.364097 106 3655ft 122kts
12-Oct-19 15:46 35.066520 -120.325142 108 3849ft 116kts
12-Oct-19 15:47 35.058758 -120.287241 107 4041ft 113kts
12-Oct-19 15:48 35.051688 -120.250130 106 4233ft 111kts
12-Oct-19 15:49 35.044800 -120.213216 107 4426ft 111kts
12-Oct-19 15:50 35.037625 -120.176643 107 4620ft 110kts
12-Oct-19 15:51 35.030850 -120.142168 107 5010ft 96kts
12-Oct-19 15:52 35.024815 -120.111521 107 5499ft 91kts
12-Oct-19 15:53 35.019149 -120.081175 95 5893ft 98kts
12-Oct-19 15:54 35.031572 -120.052143 96 6108ft 94kts
12-Oct-19 15:55 35.020624 -120.024012 120 6357ft 100kts
12-Oct-19 15:56 35.006502 -119.992403 120 6454ft 101kts
12-Oct-19 15:57 34.995422 -119.966414 103 6410ft 81kts
12-Oct-19 15:58 34.990272 -119.933196 91 5259ft 142kts
12-Oct-19 15:59 34.983910 -119.905171 120 4931ft 60kts
12-Oct-19 16:00 34.978344 -119.880944 107 4828ft 68kts
12-Oct-19 16:01 34.973487 -119.853869 107 4829ft 93kts
12-Oct-19 16:02 34.966907 -119.820555 107 4826ft 105kts
12-Oct-19 16:03 34.959867 -119.785476 108 4327ft 103kts
12-Oct-19 16:04 34.953165 -119.752160 108 3608ft 101kts
12-Oct-19 16:05 34.946342 -119.718254 108 2793ft 101kts
12-Oct-19 16:06 34.943230 -119.688707 122 2534ft 87kts
12-Oct-19 16:07 34.929896 -119.658039 105 2730ft 108kts
12-Oct-19 16:08 34.937839 -119.662272 227 2615ft 97kts
12-Oct-19 16:09 34.940176 -119.681814 298 2453ft 56kts
12-Oct-19 16:10 34.949709 -119.698610 308 2463ft 80kts
12-Oct-19 16:11 34.959451 -119.721333 222 2887ft 82kts
12-Oct-19 16:12 34.948828 -119.704559 137 2784ft 79kts
12-Oct-19 16:13 34.939849 -119.688051 200 2167ft 1kts

Navigation Log

Ident Type
Flight plan parsing failed, navigation log unavailable